sensor_id;sensor_type;location;lat;lon;timestamp;P1;durP1;ratioP1;P2;durP2;ratioP2
46765;SDS011;32527;51.986;5.842;2023-09-30T00:01:44;11.70;;;3.58;;
46765;SDS011;32527;51.986;5.842;2023-09-30T00:04:10;15.13;;;4.10;;
46765;SDS011;32527;51.986;5.842;2023-09-30T00:06:36;5.72;;;4.00;;
46765;SDS011;32527;51.986;5.842;2023-09-30T00:09:02;5.20;;;2.75;;
46765;SDS011;32527;51.986;5.842;2023-09-30T00:11:28;6.28;;;2.95;;
46765;SDS011;32527;51.986;5.842;2023-09-30T00:13:54;5.05;;;3.30;;
46765;SDS011;32527;51.986;5.842;2023-09-30T00:16:20;4.22;;;2.78;;
46765;SDS011;32527;51.986;5.842;2023-09-30T00:18:46;5.65;;;3.42;;
46765;SDS011;32527;51.986;5.842;2023-09-30T00:21:12;5.65;;;3.15;;
46765;SDS011;32527;51.986;5.842;2023-09-30T00:23:40;10.77;;;4.05;;
46765;SDS011;32527;51.986;5.842;2023-09-30T00:26:06;6.63;;;3.70;;
46765;SDS011;32527;51.986;5.842;2023-09-30T00:28:32;7.70;;;3.78;;
46765;SDS011;32527;51.986;5.842;2023-09-30T00:30:58;6.78;;;3.10;;
46765;SDS011;32527;51.986;5.842;2023-09-30T00:33:24;6.97;;;3.40;;
46765;SDS011;32527;51.986;5.842;2023-09-30T00:35:50;4.00;;;2.97;;
46765;SDS011;32527;51.986;5.842;2023-09-30T00:38:17;6.28;;;3.75;;
46765;SDS011;32527;51.986;5.842;2023-09-30T00:40:47;5.95;;;3.70;;
46765;SDS011;32527;51.986;5.842;2023-09-30T00:43:20;7.30;;;3.90;;
46765;SDS011;32527;51.986;5.842;2023-09-30T00:45:47;7.22;;;3.53;;
46765;SDS011;32527;51.986;5.842;2023-09-30T00:48:14;10.98;;;3.95;;
46765;SDS011;32527;51.986;5.842;2023-09-30T00:50:40;6.53;;;3.45;;
46765;SDS011;32527;51.986;5.842;2023-09-30T00:53:07;9.27;;;3.75;;
46765;SDS011;32527;51.986;5.842;2023-09-30T00:55:33;6.68;;;3.42;;
46765;SDS011;32527;51.986;5.842;2023-09-30T00:57:59;10.70;;;4.28;;
46765;SDS011;32527;51.986;5.842;2023-09-30T01:00:25;11.77;;;4.35;;
46765;SDS011;32527;51.986;5.842;2023-09-30T01:02:51;9.35;;;3.97;;
46765;SDS011;32527;51.986;5.842;2023-09-30T01:05:18;10.98;;;3.42;;
46765;SDS011;32527;51.986;5.842;2023-09-30T01:07:44;6.25;;;2.92;;
46765;SDS011;32527;51.986;5.842;2023-09-30T01:10:11;9.82;;;4.63;;
46765;SDS011;32527;51.986;5.842;2023-09-30T01:12:37;10.90;;;3.53;;
46765;SDS011;32527;51.986;5.842;2023-09-30T01:15:03;8.98;;;4.22;;
46765;SDS011;32527;51.986;5.842;2023-09-30T01:17:31;9.57;;;4.38;;
46765;SDS011;32527;51.986;5.842;2023-09-30T01:19:57;10.43;;;3.85;;
46765;SDS011;32527;51.986;5.842;2023-09-30T01:22:25;6.43;;;3.42;;
46765;SDS011;32527;51.986;5.842;2023-09-30T01:24:52;10.38;;;3.88;;
46765;SDS011;32527;51.986;5.842;2023-09-30T01:27:18;7.47;;;3.97;;
46765;SDS011;32527;51.986;5.842;2023-09-30T01:29:44;11.20;;;4.65;;
46765;SDS011;32527;51.986;5.842;2023-09-30T01:32:12;6.95;;;3.78;;
46765;SDS011;32527;51.986;5.842;2023-09-30T01:34:39;6.65;;;4.32;;
46765;SDS011;32527;51.986;5.842;2023-09-30T01:37:05;10.63;;;4.60;;
46765;SDS011;32527;51.986;5.842;2023-09-30T01:39:31;5.03;;;3.28;;
46765;SDS011;32527;51.986;5.842;2023-09-30T01:41:58;6.60;;;3.15;;
46765;SDS011;32527;51.986;5.842;2023-09-30T01:44:24;7.35;;;4.15;;
46765;SDS011;32527;51.986;5.842;2023-09-30T01:46:51;9.15;;;5.07;;
46765;SDS011;32527;51.986;5.842;2023-09-30T01:49:17;17.13;;;3.90;;
46765;SDS011;32527;51.986;5.842;2023-09-30T01:51:49;6.32;;;3.50;;
46765;SDS011;32527;51.986;5.842;2023-09-30T01:54:15;11.00;;;4.50;;
46765;SDS011;32527;51.986;5.842;2023-09-30T01:56:41;9.20;;;4.75;;
46765;SDS011;32527;51.986;5.842;2023-09-30T01:59:08;7.10;;;3.70;;
46765;SDS011;32527;51.986;5.842;2023-09-30T02:01:34;6.65;;;4.15;;
46765;SDS011;32527;51.986;5.842;2023-09-30T02:04:00;8.45;;;4.55;;
46765;SDS011;32527;51.986;5.842;2023-09-30T02:06:26;10.63;;;4.20;;
46765;SDS011;32527;51.986;5.842;2023-09-30T02:08:52;7.90;;;4.00;;
46765;SDS011;32527;51.986;5.842;2023-09-30T02:11:18;8.55;;;3.78;;
46765;SDS011;32527;51.986;5.842;2023-09-30T02:13:45;8.32;;;4.03;;
46765;SDS011;32527;51.986;5.842;2023-09-30T02:16:11;10.63;;;4.47;;
46765;SDS011;32527;51.986;5.842;2023-09-30T02:18:38;6.95;;;4.13;;
46765;SDS011;32527;51.986;5.842;2023-09-30T02:21:06;7.10;;;4.13;;
46765;SDS011;32527;51.986;5.842;2023-09-30T02:23:34;6.97;;;4.57;;
46765;SDS011;32527;51.986;5.842;2023-09-30T02:26:00;7.30;;;3.85;;
46765;SDS011;32527;51.986;5.842;2023-09-30T02:28:28;9.98;;;5.20;;
46765;SDS011;32527;51.986;5.842;2023-09-30T02:30:54;14.43;;;4.72;;
46765;SDS011;32527;51.986;5.842;2023-09-30T02:33:20;5.40;;;3.95;;
46765;SDS011;32527;51.986;5.842;2023-09-30T02:35:46;7.10;;;4.13;;
46765;SDS011;32527;51.986;5.842;2023-09-30T02:38:12;10.65;;;5.25;;
46765;SDS011;32527;51.986;5.842;2023-09-30T02:40:42;6.93;;;4.40;;
46765;SDS011;32527;51.986;5.842;2023-09-30T02:43:11;8.30;;;4.78;;
46765;SDS011;32527;51.986;5.842;2023-09-30T02:45:38;8.43;;;5.07;;
46765;SDS011;32527;51.986;5.842;2023-09-30T02:48:04;9.45;;;4.47;;
46765;SDS011;32527;51.986;5.842;2023-09-30T02:50:31;7.40;;;4.68;;
46765;SDS011;32527;51.986;5.842;2023-09-30T02:52:59;10.25;;;4.97;;
46765;SDS011;32527;51.986;5.842;2023-09-30T02:55:25;8.70;;;4.50;;
46765;SDS011;32527;51.986;5.842;2023-09-30T02:57:51;20.75;;;5.53;;
46765;SDS011;32527;51.986;5.842;2023-09-30T03:00:18;9.70;;;4.10;;
46765;SDS011;32527;51.986;5.842;2023-09-30T03:02:54;9.93;;;4.47;;
46765;SDS011;32527;51.986;5.842;2023-09-30T03:05:21;10.57;;;4.10;;
46765;SDS011;32527;51.986;5.842;2023-09-30T03:07:48;8.50;;;4.78;;
46765;SDS011;32527;51.986;5.842;2023-09-30T03:10:17;9.55;;;5.05;;
46765;SDS011;32527;51.986;5.842;2023-09-30T03:12:48;8.02;;;4.78;;
46765;SDS011;32527;51.986;5.842;2023-09-30T03:15:14;13.98;;;4.63;;
46765;SDS011;32527;51.986;5.842;2023-09-30T03:17:41;6.72;;;4.88;;
46765;SDS011;32527;51.986;5.842;2023-09-30T03:20:07;11.85;;;5.13;;
46765;SDS011;32527;51.986;5.842;2023-09-30T03:22:38;12.88;;;4.93;;
46765;SDS011;32527;51.986;5.842;2023-09-30T03:25:04;12.63;;;6.15;;
46765;SDS011;32527;51.986;5.842;2023-09-30T03:27:32;8.05;;;4.05;;
46765;SDS011;32527;51.986;5.842;2023-09-30T03:29:59;5.88;;;3.85;;
46765;SDS011;32527;51.986;5.842;2023-09-30T03:32:26;10.70;;;4.85;;
46765;SDS011;32527;51.986;5.842;2023-09-30T03:34:53;11.05;;;4.45;;
46765;SDS011;32527;51.986;5.842;2023-09-30T03:37:19;8.68;;;5.05;;
46765;SDS011;32527;51.986;5.842;2023-09-30T03:39:45;8.55;;;4.65;;
46765;SDS011;32527;51.986;5.842;2023-09-30T03:42:14;7.97;;;3.88;;
46765;SDS011;32527;51.986;5.842;2023-09-30T03:44:41;9.75;;;5.32;;
46765;SDS011;32527;51.986;5.842;2023-09-30T03:47:07;8.02;;;5.13;;
46765;SDS011;32527;51.986;5.842;2023-09-30T03:49:34;12.30;;;5.15;;
46765;SDS011;32527;51.986;5.842;2023-09-30T03:52:00;10.18;;;4.00;;
46765;SDS011;32527;51.986;5.842;2023-09-30T03:54:26;7.93;;;5.38;;
46765;SDS011;32527;51.986;5.842;2023-09-30T03:56:52;7.60;;;5.50;;
46765;SDS011;32527;51.986;5.842;2023-09-30T03:59:18;12.40;;;5.05;;
46765;SDS011;32527;51.986;5.842;2023-09-30T04:01:44;7.82;;;4.47;;
46765;SDS011;32527;51.986;5.842;2023-09-30T04:04:12;9.70;;;5.32;;
46765;SDS011;32527;51.986;5.842;2023-09-30T04:06:38;9.07;;;4.70;;
46765;SDS011;32527;51.986;5.842;2023-09-30T04:09:05;7.72;;;4.43;;
46765;SDS011;32527;51.986;5.842;2023-09-30T04:11:37;10.02;;;5.40;;
46765;SDS011;32527;51.986;5.842;2023-09-30T04:14:06;7.82;;;5.03;;
46765;SDS011;32527;51.986;5.842;2023-09-30T04:16:33;10.45;;;5.78;;
46765;SDS011;32527;51.986;5.842;2023-09-30T04:18:59;11.05;;;5.82;;
46765;SDS011;32527;51.986;5.842;2023-09-30T04:21:25;8.40;;;5.40;;
46765;SDS011;32527;51.986;5.842;2023-09-30T04:23:53;8.05;;;4.57;;
46765;SDS011;32527;51.986;5.842;2023-09-30T04:26:19;11.43;;;5.18;;
46765;SDS011;32527;51.986;5.842;2023-09-30T04:28:45;8.07;;;5.35;;
46765;SDS011;32527;51.986;5.842;2023-09-30T04:31:11;8.32;;;4.70;;
46765;SDS011;32527;51.986;5.842;2023-09-30T04:33:38;6.32;;;4.60;;
46765;SDS011;32527;51.986;5.842;2023-09-30T04:36:05;12.48;;;6.03;;
46765;SDS011;32527;51.986;5.842;2023-09-30T04:38:34;10.15;;;5.07;;
46765;SDS011;32527;51.986;5.842;2023-09-30T04:41:02;10.32;;;5.55;;
46765;SDS011;32527;51.986;5.842;2023-09-30T04:43:28;12.02;;;5.93;;
46765;SDS011;32527;51.986;5.842;2023-09-30T04:45:55;10.38;;;5.47;;
46765;SDS011;32527;51.986;5.842;2023-09-30T04:48:23;13.10;;;8.23;;
46765;SDS011;32527;51.986;5.842;2023-09-30T04:50:49;7.47;;;5.68;;
46765;SDS011;32527;51.986;5.842;2023-09-30T04:53:16;9.40;;;5.95;;
46765;SDS011;32527;51.986;5.842;2023-09-30T04:55:43;9.75;;;5.93;;
46765;SDS011;32527;51.986;5.842;2023-09-30T04:58:09;10.85;;;6.07;;
46765;SDS011;32527;51.986;5.842;2023-09-30T05:00:35;10.05;;;5.43;;
46765;SDS011;32527;51.986;5.842;2023-09-30T05:03:02;8.20;;;5.22;;
46765;SDS011;32527;51.986;5.842;2023-09-30T05:05:29;10.10;;;5.78;;
46765;SDS011;32527;51.986;5.842;2023-09-30T05:07:55;9.02;;;5.28;;
46765;SDS011;32527;51.986;5.842;2023-09-30T05:10:23;9.48;;;5.65;;
46765;SDS011;32527;51.986;5.842;2023-09-30T05:12:49;14.18;;;5.43;;
46765;SDS011;32527;51.986;5.842;2023-09-30T05:15:19;8.80;;;5.32;;
46765;SDS011;32527;51.986;5.842;2023-09-30T05:17:45;8.00;;;4.88;;
46765;SDS011;32527;51.986;5.842;2023-09-30T05:20:11;10.52;;;6.07;;
46765;SDS011;32527;51.986;5.842;2023-09-30T05:22:41;11.60;;;6.13;;
46765;SDS011;32527;51.986;5.842;2023-09-30T05:25:10;14.57;;;6.38;;
46765;SDS011;32527;51.986;5.842;2023-09-30T05:27:36;9.73;;;5.30;;
46765;SDS011;32527;51.986;5.842;2023-09-30T05:30:03;9.10;;;5.93;;
46765;SDS011;32527;51.986;5.842;2023-09-30T05:32:31;13.48;;;7.22;;
46765;SDS011;32527;51.986;5.842;2023-09-30T05:34:57;10.43;;;6.70;;
46765;SDS011;32527;51.986;5.842;2023-09-30T05:37:24;13.00;;;6.50;;
46765;SDS011;32527;51.986;5.842;2023-09-30T05:39:51;8.07;;;5.15;;
46765;SDS011;32527;51.986;5.842;2023-09-30T05:42:17;10.15;;;5.55;;
46765;SDS011;32527;51.986;5.842;2023-09-30T05:44:44;11.95;;;6.63;;
46765;SDS011;32527;51.986;5.842;2023-09-30T05:47:11;12.90;;;7.38;;
46765;SDS011;32527;51.986;5.842;2023-09-30T05:49:37;8.73;;;5.65;;
46765;SDS011;32527;51.986;5.842;2023-09-30T05:52:03;14.10;;;7.38;;
46765;SDS011;32527;51.986;5.842;2023-09-30T05:54:30;11.25;;;7.75;;
46765;SDS011;32527;51.986;5.842;2023-09-30T05:56:56;12.85;;;6.15;;
46765;SDS011;32527;51.986;5.842;2023-09-30T05:59:22;12.32;;;5.85;;
46765;SDS011;32527;51.986;5.842;2023-09-30T06:01:50;10.20;;;5.25;;
46765;SDS011;32527;51.986;5.842;2023-09-30T06:04:16;12.20;;;7.03;;
46765;SDS011;32527;51.986;5.842;2023-09-30T06:06:42;10.32;;;6.97;;
46765;SDS011;32527;51.986;5.842;2023-09-30T06:09:08;11.35;;;6.22;;
46765;SDS011;32527;51.986;5.842;2023-09-30T06:11:34;8.35;;;5.63;;
46765;SDS011;32527;51.986;5.842;2023-09-30T06:14:01;15.43;;;6.88;;
46765;SDS011;32527;51.986;5.842;2023-09-30T06:16:27;9.98;;;6.15;;
46765;SDS011;32527;51.986;5.842;2023-09-30T06:18:54;13.35;;;7.55;;
46765;SDS011;32527;51.986;5.842;2023-09-30T06:21:21;8.50;;;5.55;;
46765;SDS011;32527;51.986;5.842;2023-09-30T06:23:50;12.93;;;6.70;;
46765;SDS011;32527;51.986;5.842;2023-09-30T06:26:18;14.75;;;6.53;;
46765;SDS011;32527;51.986;5.842;2023-09-30T06:28:46;18.58;;;7.57;;
46765;SDS011;32527;51.986;5.842;2023-09-30T06:31:13;10.73;;;6.85;;
46765;SDS011;32527;51.986;5.842;2023-09-30T06:33:40;11.75;;;6.45;;
46765;SDS011;32527;51.986;5.842;2023-09-30T06:36:10;11.25;;;6.00;;
46765;SDS011;32527;51.986;5.842;2023-09-30T06:38:39;12.95;;;7.03;;
46765;SDS011;32527;51.986;5.842;2023-09-30T06:41:08;13.10;;;6.82;;
46765;SDS011;32527;51.986;5.842;2023-09-30T06:43:35;14.80;;;6.38;;
46765;SDS011;32527;51.986;5.842;2023-09-30T06:46:08;14.43;;;7.00;;
46765;SDS011;32527;51.986;5.842;2023-09-30T06:48:38;10.35;;;6.15;;
46765;SDS011;32527;51.986;5.842;2023-09-30T06:51:05;11.43;;;6.82;;
46765;SDS011;32527;51.986;5.842;2023-09-30T06:53:32;12.25;;;7.07;;
46765;SDS011;32527;51.986;5.842;2023-09-30T06:55:58;8.25;;;5.75;;
46765;SDS011;32527;51.986;5.842;2023-09-30T06:58:24;14.48;;;7.70;;
46765;SDS011;32527;51.986;5.842;2023-09-30T07:00:51;13.93;;;6.18;;
46765;SDS011;32527;51.986;5.842;2023-09-30T07:03:18;10.20;;;6.10;;
46765;SDS011;32527;51.986;5.842;2023-09-30T07:05:44;9.63;;;7.03;;
46765;SDS011;32527;51.986;5.842;2023-09-30T07:08:14;12.27;;;6.60;;
46765;SDS011;32527;51.986;5.842;2023-09-30T07:10:40;10.38;;;6.57;;
46765;SDS011;32527;51.986;5.842;2023-09-30T07:13:06;9.73;;;6.68;;
46765;SDS011;32527;51.986;5.842;2023-09-30T07:15:33;16.40;;;7.68;;
46765;SDS011;32527;51.986;5.842;2023-09-30T07:17:59;14.00;;;7.25;;
46765;SDS011;32527;51.986;5.842;2023-09-30T07:20:25;12.43;;;6.90;;
46765;SDS011;32527;51.986;5.842;2023-09-30T07:22:51;11.98;;;7.78;;
46765;SDS011;32527;51.986;5.842;2023-09-30T07:25:17;9.30;;;6.00;;
46765;SDS011;32527;51.986;5.842;2023-09-30T07:27:43;9.70;;;6.15;;
46765;SDS011;32527;51.986;5.842;2023-09-30T07:30:10;11.02;;;6.25;;
46765;SDS011;32527;51.986;5.842;2023-09-30T07:32:37;14.88;;;6.55;;
46765;SDS011;32527;51.986;5.842;2023-09-30T07:35:03;9.95;;;6.50;;
46765;SDS011;32527;51.986;5.842;2023-09-30T07:37:29;16.75;;;6.88;;
46765;SDS011;32527;51.986;5.842;2023-09-30T07:39:55;14.10;;;6.22;;
46765;SDS011;32527;51.986;5.842;2023-09-30T07:42:22;12.82;;;6.93;;
46765;SDS011;32527;51.986;5.842;2023-09-30T07:44:49;10.32;;;7.40;;
46765;SDS011;32527;51.986;5.842;2023-09-30T07:47:15;9.65;;;6.25;;
46765;SDS011;32527;51.986;5.842;2023-09-30T07:49:41;11.02;;;6.95;;
46765;SDS011;32527;51.986;5.842;2023-09-30T07:52:07;9.52;;;6.32;;
46765;SDS011;32527;51.986;5.842;2023-09-30T07:54:33;12.73;;;6.57;;
46765;SDS011;32527;51.986;5.842;2023-09-30T07:56:59;14.82;;;7.68;;
46765;SDS011;32527;51.986;5.842;2023-09-30T07:59:28;13.30;;;6.93;;
46765;SDS011;32527;51.986;5.842;2023-09-30T08:01:54;9.32;;;5.72;;
46765;SDS011;32527;51.986;5.842;2023-09-30T08:04:22;10.45;;;6.53;;
46765;SDS011;32527;51.986;5.842;2023-09-30T08:06:48;11.93;;;6.18;;
46765;SDS011;32527;51.986;5.842;2023-09-30T08:09:16;12.13;;;5.55;;
46765;SDS011;32527;51.986;5.842;2023-09-30T08:11:43;10.20;;;6.15;;
46765;SDS011;32527;51.986;5.842;2023-09-30T08:14:09;9.77;;;5.70;;
46765;SDS011;32527;51.986;5.842;2023-09-30T08:16:36;10.60;;;5.45;;
46765;SDS011;32527;51.986;5.842;2023-09-30T08:19:02;8.77;;;5.72;;
46765;SDS011;32527;51.986;5.842;2023-09-30T08:21:29;14.25;;;5.53;;
46765;SDS011;32527;51.986;5.842;2023-09-30T08:23:55;10.23;;;5.72;;
46765;SDS011;32527;51.986;5.842;2023-09-30T08:26:21;12.30;;;6.57;;
46765;SDS011;32527;51.986;5.842;2023-09-30T08:28:47;8.38;;;5.15;;
46765;SDS011;32527;51.986;5.842;2023-09-30T08:31:14;10.60;;;5.97;;
46765;SDS011;32527;51.986;5.842;2023-09-30T08:33:40;14.43;;;7.10;;
46765;SDS011;32527;51.986;5.842;2023-09-30T08:36:09;11.40;;;6.32;;
46765;SDS011;32527;51.986;5.842;2023-09-30T08:38:35;12.13;;;6.65;;
46765;SDS011;32527;51.986;5.842;2023-09-30T08:41:02;11.73;;;7.15;;
46765;SDS011;32527;51.986;5.842;2023-09-30T08:43:29;10.80;;;5.88;;
46765;SDS011;32527;51.986;5.842;2023-09-30T08:46:01;9.15;;;5.75;;
46765;SDS011;32527;51.986;5.842;2023-09-30T08:48:29;13.77;;;5.72;;
46765;SDS011;32527;51.986;5.842;2023-09-30T08:50:58;10.35;;;6.32;;
46765;SDS011;32527;51.986;5.842;2023-09-30T08:53:25;9.13;;;6.15;;
46765;SDS011;32527;51.986;5.842;2023-09-30T08:55:54;24.55;;;8.23;;
46765;SDS011;32527;51.986;5.842;2023-09-30T08:58:23;12.35;;;7.68;;
46765;SDS011;32527;51.986;5.842;2023-09-30T09:00:51;11.57;;;6.30;;
46765;SDS011;32527;51.986;5.842;2023-09-30T09:03:18;7.72;;;4.88;;
46765;SDS011;32527;51.986;5.842;2023-09-30T09:05:45;8.27;;;5.05;;
46765;SDS011;32527;51.986;5.842;2023-09-30T09:08:11;13.13;;;6.53;;
46765;SDS011;32527;51.986;5.842;2023-09-30T09:10:47;10.18;;;5.82;;
46765;SDS011;32527;51.986;5.842;2023-09-30T09:13:21;11.25;;;5.57;;
46765;SDS011;32527;51.986;5.842;2023-09-30T09:15:47;11.43;;;7.00;;
46765;SDS011;32527;51.986;5.842;2023-09-30T09:18:20;12.02;;;5.65;;
46765;SDS011;32527;51.986;5.842;2023-09-30T09:21:14;11.13;;;5.68;;
46765;SDS011;32527;51.986;5.842;2023-09-30T09:23:43;9.80;;;6.05;;
46765;SDS011;32527;51.986;5.842;2023-09-30T09:26:10;13.32;;;6.88;;
46765;SDS011;32527;51.986;5.842;2023-09-30T09:28:37;8.40;;;5.22;;
46765;SDS011;32527;51.986;5.842;2023-09-30T09:31:18;12.02;;;5.68;;
46765;SDS011;32527;51.986;5.842;2023-09-30T09:33:48;8.48;;;5.05;;
46765;SDS011;32527;51.986;5.842;2023-09-30T09:36:14;5.82;;;4.43;;
46765;SDS011;32527;51.986;5.842;2023-09-30T09:38:44;9.27;;;5.15;;
46765;SDS011;32527;51.986;5.842;2023-09-30T09:41:18;7.85;;;5.38;;
46765;SDS011;32527;51.986;5.842;2023-09-30T09:43:45;11.45;;;5.50;;
46765;SDS011;32527;51.986;5.842;2023-09-30T09:46:14;9.63;;;4.95;;
46765;SDS011;32527;51.986;5.842;2023-09-30T09:48:42;11.25;;;5.13;;
46765;SDS011;32527;51.986;5.842;2023-09-30T09:51:11;7.13;;;4.53;;
46765;SDS011;32527;51.986;5.842;2023-09-30T09:53:38;10.82;;;5.93;;
46765;SDS011;32527;51.986;5.842;2023-09-30T09:56:07;8.95;;;6.10;;
46765;SDS011;32527;51.986;5.842;2023-09-30T09:58:35;13.95;;;5.57;;
46765;SDS011;32527;51.986;5.842;2023-09-30T10:01:05;14.02;;;5.40;;
46765;SDS011;32527;51.986;5.842;2023-09-30T10:03:31;9.48;;;5.78;;
46765;SDS011;32527;51.986;5.842;2023-09-30T10:05:57;12.70;;;5.50;;
46765;SDS011;32527;51.986;5.842;2023-09-30T10:08:35;13.30;;;5.70;;
46765;SDS011;32527;51.986;5.842;2023-09-30T10:11:05;9.43;;;5.00;;
46765;SDS011;32527;51.986;5.842;2023-09-30T10:13:54;11.30;;;5.13;;
46765;SDS011;32527;51.986;5.842;2023-09-30T10:19:21;7.85;;;4.53;;
46765;SDS011;32527;51.986;5.842;2023-09-30T10:24:41;5.68;;;3.40;;
46765;SDS011;32527;51.986;5.842;2023-09-30T10:33:26;10.77;;;5.50;;
46765;SDS011;32527;51.986;5.842;2023-09-30T10:40:55;10.68;;;4.00;;
46765;SDS011;32527;51.986;5.842;2023-09-30T10:49:14;7.40;;;3.80;;
46765;SDS011;32527;51.986;5.842;2023-09-30T10:51:57;6.72;;;3.85;;
46765;SDS011;32527;51.986;5.842;2023-09-30T10:54:28;7.55;;;3.63;;
46765;SDS011;32527;51.986;5.842;2023-09-30T10:56:55;5.68;;;3.35;;
46765;SDS011;32527;51.986;5.842;2023-09-30T10:59:33;6.18;;;3.55;;
46765;SDS011;32527;51.986;5.842;2023-09-30T11:02:00;10.25;;;3.58;;
46765;SDS011;32527;51.986;5.842;2023-09-30T11:04:26;6.60;;;2.83;;
46765;SDS011;32527;51.986;5.842;2023-09-30T11:06:53;7.75;;;3.08;;
46765;SDS011;32527;51.986;5.842;2023-09-30T11:09:20;6.25;;;3.65;;
46765;SDS011;32527;51.986;5.842;2023-09-30T11:11:48;7.35;;;2.53;;
46765;SDS011;32527;51.986;5.842;2023-09-30T11:16:57;7.45;;;2.70;;
46765;SDS011;32527;51.986;5.842;2023-09-30T11:19:24;4.78;;;2.50;;
46765;SDS011;32527;51.986;5.842;2023-09-30T11:21:52;6.75;;;2.50;;
46765;SDS011;32527;51.986;5.842;2023-09-30T11:24:20;4.90;;;2.80;;
46765;SDS011;32527;51.986;5.842;2023-09-30T11:26:46;6.97;;;2.47;;
46765;SDS011;32527;51.986;5.842;2023-09-30T11:29:13;3.10;;;1.80;;
46765;SDS011;32527;51.986;5.842;2023-09-30T11:31:41;4.97;;;2.72;;
46765;SDS011;32527;51.986;5.842;2023-09-30T11:34:16;7.53;;;2.50;;
46765;SDS011;32527;51.986;5.842;2023-09-30T11:36:49;4.15;;;2.33;;
46765;SDS011;32527;51.986;5.842;2023-09-30T11:39:26;3.80;;;1.83;;
46765;SDS011;32527;51.986;5.842;2023-09-30T11:41:53;3.75;;;2.05;;
46765;SDS011;32527;51.986;5.842;2023-09-30T11:44:23;7.15;;;2.80;;
46765;SDS011;32527;51.986;5.842;2023-09-30T11:46:57;4.50;;;2.00;;
46765;SDS011;32527;51.986;5.842;2023-09-30T11:52:00;6.97;;;2.22;;
46765;SDS011;32527;51.986;5.842;2023-09-30T11:54:35;6.03;;;2.22;;
46765;SDS011;32527;51.986;5.842;2023-09-30T11:57:18;5.50;;;2.28;;
46765;SDS011;32527;51.986;5.842;2023-09-30T11:59:44;3.28;;;1.83;;
46765;SDS011;32527;51.986;5.842;2023-09-30T12:02:11;9.35;;;2.85;;
46765;SDS011;32527;51.986;5.842;2023-09-30T12:04:39;7.82;;;1.88;;
46765;SDS011;32527;51.986;5.842;2023-09-30T12:07:05;4.10;;;2.25;;
46765;SDS011;32527;51.986;5.842;2023-09-30T12:09:32;7.40;;;1.65;;
46765;SDS011;32527;51.986;5.842;2023-09-30T12:12:00;5.55;;;2.05;;
46765;SDS011;32527;51.986;5.842;2023-09-30T12:14:26;6.57;;;2.22;;
46765;SDS011;32527;51.986;5.842;2023-09-30T12:16:51;3.50;;;1.60;;
46765;SDS011;32527;51.986;5.842;2023-09-30T12:19:17;9.05;;;1.80;;
46765;SDS011;32527;51.986;5.842;2023-09-30T12:21:43;2.28;;;1.67;;
46765;SDS011;32527;51.986;5.842;2023-09-30T12:24:12;6.18;;;2.10;;
46765;SDS011;32527;51.986;5.842;2023-09-30T12:26:42;4.07;;;1.52;;
46765;SDS011;32527;51.986;5.842;2023-09-30T12:29:15;5.57;;;2.05;;
46765;SDS011;32527;51.986;5.842;2023-09-30T12:31:44;3.10;;;1.63;;
46765;SDS011;32527;51.986;5.842;2023-09-30T12:34:11;2.33;;;1.42;;
46765;SDS011;32527;51.986;5.842;2023-09-30T12:36:40;4.80;;;2.60;;
46765;SDS011;32527;51.986;5.842;2023-09-30T12:39:07;3.53;;;2.00;;
46765;SDS011;32527;51.986;5.842;2023-09-30T12:41:37;6.38;;;2.38;;
46765;SDS011;32527;51.986;5.842;2023-09-30T12:44:03;4.18;;;2.85;;
46765;SDS011;32527;51.986;5.842;2023-09-30T12:46:29;7.07;;;2.08;;
46765;SDS011;32527;51.986;5.842;2023-09-30T12:48:56;4.30;;;2.25;;
46765;SDS011;32527;51.986;5.842;2023-09-30T12:51:22;4.95;;;1.95;;
46765;SDS011;32527;51.986;5.842;2023-09-30T12:53:49;6.32;;;2.95;;
46765;SDS011;32527;51.986;5.842;2023-09-30T12:56:16;3.22;;;1.83;;
46765;SDS011;32527;51.986;5.842;2023-09-30T12:58:41;4.57;;;1.90;;
46765;SDS011;32527;51.986;5.842;2023-09-30T13:01:07;4.25;;;1.42;;
46765;SDS011;32527;51.986;5.842;2023-09-30T13:03:33;4.50;;;1.98;;
46765;SDS011;32527;51.986;5.842;2023-09-30T13:06:00;4.82;;;2.17;;
46765;SDS011;32527;51.986;5.842;2023-09-30T13:08:26;4.07;;;1.98;;
46765;SDS011;32527;51.986;5.842;2023-09-30T13:10:58;2.58;;;1.55;;
46765;SDS011;32527;51.986;5.842;2023-09-30T13:13:24;4.63;;;2.28;;
46765;SDS011;32527;51.986;5.842;2023-09-30T13:15:50;5.50;;;1.95;;
46765;SDS011;32527;51.986;5.842;2023-09-30T13:18:16;8.80;;;2.38;;
46765;SDS011;32527;51.986;5.842;2023-09-30T13:20:42;6.90;;;1.85;;
46765;SDS011;32527;51.986;5.842;2023-09-30T13:23:08;6.03;;;2.40;;
46765;SDS011;32527;51.986;5.842;2023-09-30T13:25:34;3.95;;;2.08;;
46765;SDS011;32527;51.986;5.842;2023-09-30T13:28:00;5.18;;;2.65;;
46765;SDS011;32527;51.986;5.842;2023-09-30T13:30:26;4.97;;;2.65;;
46765;SDS011;32527;51.986;5.842;2023-09-30T13:32:53;7.57;;;2.45;;
46765;SDS011;32527;51.986;5.842;2023-09-30T13:35:19;6.45;;;2.67;;
46765;SDS011;32527;51.986;5.842;2023-09-30T13:37:45;9.13;;;4.15;;
46765;SDS011;32527;51.986;5.842;2023-09-30T13:40:10;3.97;;;2.38;;
46765;SDS011;32527;51.986;5.842;2023-09-30T13:42:38;4.93;;;2.90;;
46765;SDS011;32527;51.986;5.842;2023-09-30T13:45:04;7.07;;;3.00;;
46765;SDS011;32527;51.986;5.842;2023-09-30T13:47:31;5.88;;;2.70;;
46765;SDS011;32527;51.986;5.842;2023-09-30T13:49:58;8.45;;;2.60;;
46765;SDS011;32527;51.986;5.842;2023-09-30T13:52:24;6.72;;;2.83;;
46765;SDS011;32527;51.986;5.842;2023-09-30T13:54:50;7.32;;;2.85;;
46765;SDS011;32527;51.986;5.842;2023-09-30T13:57:16;9.65;;;3.30;;
46765;SDS011;32527;51.986;5.842;2023-09-30T13:59:42;2.90;;;2.10;;
46765;SDS011;32527;51.986;5.842;2023-09-30T14:02:07;5.60;;;2.17;;
46765;SDS011;32527;51.986;5.842;2023-09-30T14:04:33;7.78;;;2.40;;
46765;SDS011;32527;51.986;5.842;2023-09-30T14:07:03;6.95;;;3.33;;
46765;SDS011;32527;51.986;5.842;2023-09-30T14:09:30;6.53;;;2.03;;
46765;SDS011;32527;51.986;5.842;2023-09-30T14:11:56;4.03;;;2.45;;
46765;SDS011;32527;51.986;5.842;2023-09-30T14:14:24;4.68;;;2.53;;
46765;SDS011;32527;51.986;5.842;2023-09-30T14:16:50;6.13;;;2.78;;
46765;SDS011;32527;51.986;5.842;2023-09-30T14:19:16;4.70;;;2.50;;
46765;SDS011;32527;51.986;5.842;2023-09-30T14:21:42;4.50;;;1.40;;
46765;SDS011;32527;51.986;5.842;2023-09-30T14:24:08;3.35;;;2.13;;
46765;SDS011;32527;51.986;5.842;2023-09-30T14:26:34;4.72;;;2.75;;
46765;SDS011;32527;51.986;5.842;2023-09-30T14:29:01;4.32;;;2.50;;
46765;SDS011;32527;51.986;5.842;2023-09-30T14:31:27;3.70;;;1.70;;
46765;SDS011;32527;51.986;5.842;2023-09-30T14:33:53;5.82;;;2.38;;
46765;SDS011;32527;51.986;5.842;2023-09-30T14:36:19;2.92;;;2.17;;
46765;SDS011;32527;51.986;5.842;2023-09-30T14:38:45;3.42;;;2.03;;
46765;SDS011;32527;51.986;5.842;2023-09-30T14:41:11;6.07;;;3.10;;
46765;SDS011;32527;51.986;5.842;2023-09-30T14:43:38;5.60;;;2.63;;
46765;SDS011;32527;51.986;5.842;2023-09-30T14:46:04;5.28;;;2.70;;
46765;SDS011;32527;51.986;5.842;2023-09-30T14:48:30;4.45;;;2.78;;
46765;SDS011;32527;51.986;5.842;2023-09-30T14:50:56;7.95;;;2.70;;
46765;SDS011;32527;51.986;5.842;2023-09-30T14:53:23;6.00;;;2.95;;
46765;SDS011;32527;51.986;5.842;2023-09-30T14:55:49;6.53;;;2.90;;
46765;SDS011;32527;51.986;5.842;2023-09-30T14:58:15;5.85;;;2.72;;
46765;SDS011;32527;51.986;5.842;2023-09-30T15:00:41;6.10;;;3.65;;
46765;SDS011;32527;51.986;5.842;2023-09-30T15:03:08;8.00;;;3.13;;
46765;SDS011;32527;51.986;5.842;2023-09-30T15:05:34;5.80;;;2.97;;
46765;SDS011;32527;51.986;5.842;2023-09-30T15:08:00;6.72;;;3.05;;
46765;SDS011;32527;51.986;5.842;2023-09-30T15:10:27;6.28;;;2.72;;
46765;SDS011;32527;51.986;5.842;2023-09-30T15:12:53;4.95;;;2.85;;